Latest Coastal Weather Observations for Burnie Port

IDT60701

Issued at 9:51 pm EST Tuesday 4 August 2015 (issued every 10 minutes, with the page automatically refreshed every 10 minutes)

About coastal observations | Map of coastal stations | Coastal observations for TAS | Marine services | Other Formats
Station Details ID: 091344 Name: BURNIE NTC AWS Lat: -41.05 Lon: 145.91 Height: 0.0 m
Data from the previous 72 hours. | See also: Recent months for locations in Tasmania
Date/Time
EST
Temp

°C
Wind Pressure Rain
since 9am
mm
Weather Cloud Vis
km
Sea
Height
m
Swell
Dir
 
Speed
knots
Gust
knots
hPa Trend Height
m
Period
s
Dir
04/09:30pm 8.3 W 16 25 1003.5 - - - - - - - - -
04/09:29pm 8.3 W 16 25 1003.7 - - - - - - - - -
04/09:00pm 9.4 WNW 10 19 1003.3 - - - - - - - - -
04/08:30pm 9.5 WNW 12 20 1003.5 - - - - - - - - -
04/08:00pm 9.1 WNW 8 14 1004.4 - - - - - - - - -
04/07:30pm 9.5 WNW 10 19 1004.9 - - - - - - - - -
04/07:00pm 9.6 WNW 13 21 1005.1 - - - - - - - - -
04/06:30pm 9.5 WNW 16 22 1005.7 - - - - - - - - -
04/06:13pm 9.5 WNW 15 25 1006.1 - - - - - - - - -
04/06:00pm 9.6 WNW 12 24 1006.2 - - - - - - - - -
04/05:30pm 9.8 WNW 12 24 1006.6 - - - - - - - - -
04/05:00pm 10.2 WNW 13 24 1007.1 - - - - - - - - -
04/04:30pm 10.3 WNW 11 20 1007.6 - - - - - - - - -
04/04:00pm 10.2 WNW 11 18 1008.2 - - - - - - - - -
04/03:30pm 10.2 WNW 15 23 1008.9 - - - - - - - - -
04/03:00pm 9.4 W 14 23 1009.5 - - - - - - - - -
04/02:30pm 10.3 NW 15 19 1009.7 - - - - - - - - -
04/02:00pm 9.8 WNW 11 22 1010.3 - - - - - - - - -
04/01:30pm 9.4 WNW 13 20 1011.3 - - - - - - - - -
04/01:00pm 10.1 NW 18 26 1011.9 - - - - - - - - -
04/12:30pm 10.1 WNW 16 26 1012.7 - - - - - - - - -
04/12:00pm 9.6 NW 16 21 1013.4 - - - - - - - - -
04/11:30am 9.2 NW 16 20 1014.1 - - - - - - - - -
04/11:00am 8.5 NW 12 15 1014.9 - - - - - - - - -
04/10:30am 7.4 NW 10 12 1015.5 - - - - - - - - -
04/10:00am 6.6 NW 8 10 1016.0 - - - - - - - - -
04/09:30am 6.3 WNW 6 9 1016.5 - - - - - - - - -
04/09:00am 5.7 WNW 6 10 1016.9 - - - - - - - - -
04/08:30am 5.6 W 5 11 1017.1 - - - - - - - - -
04/08:00am 4.9 WNW 4 7 1017.2 - - - - - - - - -
04/07:30am 5.0 WNW 5 9 1017.2 - - - - - - - - -
04/07:00am 4.5 SW 6 9 1017.4 - - - - - - - - -
04/06:30am 4.6 W 7 10 1017.4 - - - - - - - - -
04/06:00am 4.8 W 7 12 1017.5 - - - - - - - - -
04/05:30am 4.3 W 3 5 1017.6 - - - - - - - - -
04/05:00am 4.1 WSW 3 6 1017.5 - - - - - - - - -
04/04:30am 3.4 CALM 0 2 1017.6 - - - - - - - - -
04/04:00am 3.7 W 2 4 1017.7 - - - - - - - - -
04/03:30am 3.3 W 4 6 1017.9 - - - - - - - - -
04/03:00am 3.7 W 4 6 1018.0 - - - - - - - - -
04/02:30am 3.6 SW 2 4 1018.4 - - - - - - - - -
04/02:00am 3.9 SW 6 10 1018.7 - - - - - - - - -
04/01:30am 4.0 SW 5 8 1018.9 - - - - - - - - -
04/01:00am 4.5 WSW 8 12 1019.1 - - - - - - - - -
04/12:30am 4.4 SW 7 9 1019.3 - - - - - - - - -
04/12:00am 4.1 WSW 5 7 1019.6 - - - - - - - - -
 
Date/Time
EST
Temp

°C
Wind Pressure Rain
since 9am
mm
Weather Cloud Vis
km
Sea
Height
m
Swell
Dir
 
Speed
knots
Gust
knots
hPa Trend Height
m
Period
s
Dir
03/11:30pm 4.5 WSW 8 12 1019.5 - - - - - - - - -
03/11:00pm 4.2 SW 4 7 1019.5 - - - - - - - - -
03/10:30pm 5.0 WSW 10 14 1019.6 - - - - - - - - -
03/10:00pm 4.7 WSW 11 15 1019.4 - - - - - - - - -
03/09:30pm 4.5 WSW 10 15 1019.3 - - - - - - - - -
03/09:00pm 4.2 W 8 14 1018.9 - - - - - - - - -
03/08:30pm 4.3 W 8 12 1018.6 - - - - - - - - -
03/08:00pm 4.5 W 9 12 1018.7 - - - - - - - - -
03/07:30pm 4.7 W 9 13 1018.4 - - - - - - - - -
03/07:00pm 4.8 W 7 11 1017.9 - - - - - - - - -
03/06:30pm 5.5 W 8 12 1017.3 - - - - - - - - -
03/06:00pm 6.1 W 4 8 1016.5 - - - - - - - - -
03/05:30pm 6.0 W 6 11 1015.5 - - - - - - - - -
03/05:00pm 6.2 WSW 7 11 1015.6 - - - - - - - - -
03/04:30pm 5.6 SW 8 12 1014.7 - - - - - - - - -
03/04:00pm 6.3 SW 11 19 1014.5 - - - - - - - - -
03/03:30pm 6.7 WSW 13 24 1013.4 - - - - - - - - -
03/03:20pm 6.9 WSW 15 26 1013.2 - - - - - - - - -
03/03:00pm 7.2 SW 10 19 1012.8 - - - - - - - - -
03/02:30pm 5.9 SW 11 18 1012.6 - - - - - - - - -
03/02:00pm 4.6 SW 19 26 1013.4 - - - - - - - - -
03/01:32pm 6.2 WSW 15 27 1012.0 - - - - - - - - -
03/01:30pm 6.6 WSW 13 27 1012.0 - - - - - - - - -
03/01:00pm 6.9 WSW 11 25 1011.4 - - - - - - - - -
03/12:34pm 7.1 WSW 15 26 1011.3 - - - - - - - - -
03/12:30pm 7.3 WSW 13 26 1011.3 - - - - - - - - -
03/12:05pm 6.6 W 15 25 1010.8 - - - - - - - - -
03/12:00pm 6.6 WSW 14 24 1010.9 - - - - - - - - -
03/11:43am 6.7 W 15 26 1010.5 - - - - - - - - -
03/11:30am 6.3 W 12 21 1009.9 - - - - - - - - -
03/11:00am 5.8 W 12 21 1010.0 - - - - - - - - -
03/10:30am 4.9 WSW 10 19 1009.3 - - - - - - - - -
03/10:00am 3.9 W 11 18 1008.8 - - - - - - - - -
03/09:30am 4.3 WNW 8 14 1008.1 - - - - - - - - -
03/09:00am 3.2 W 10 17 1007.3 - - - - - - - - -
03/08:30am 3.7 WNW 8 13 1007.1 - - - - - - - - -
03/08:00am 3.4 WSW 9 15 1006.3 - - - - - - - - -
03/07:30am 3.0 W 6 9 1005.6 - - - - - - - - -
03/07:00am 2.7 W 6 10 1004.9 - - - - - - - - -
03/06:30am 2.4 W 7 12 1004.0 - - - - - - - - -
03/06:00am 2.6 SW 5 12 1003.8 - - - - - - - - -
03/05:30am 3.4 W 8 14 1002.5 - - - - - - - - -
03/05:00am 3.4 WSW 10 17 1002.1 - - - - - - - - -
03/04:48am 3.7 WSW 15 26 1002.1 - - - - - - - - -
03/04:30am 4.4 W 9 19 1001.1 - - - - - - - - -
03/04:00am 4.3 W 8 13 1000.8 - - - - - - - - -
03/03:30am 3.8 W 6 10 1000.3 - - - - - - - - -
03/03:00am 4.0 W 9 16 1001.4 - - - - - - - - -
03/02:30am 3.9 W 7 11 999.5 - - - - - - - - -
03/02:00am 3.8 W 9 15 1000.9 - - - - - - - - -
03/01:30am 4.4 WNW 11 18 999.7 - - - - - - - - -
03/01:00am 5.0 W 10 18 1000.0 - - - - - - - - -
03/12:30am 5.0 W 14 26 999.3 - - - - - - - - -
03/12:22am 5.2 W 15 26 999.7 - - - - - - - - -
03/12:00am 5.3 W 9 16 999.3 - - - - - - - - -
 
Date/Time
EST
Temp

°C
Wind Pressure Rain
since 9am
mm
Weather Cloud Vis
km
Sea
Height
m
Swell
Dir
 
Speed
knots
Gust
knots
hPa Trend Height
m
Period
s
Dir
02/11:30pm 5.5 WNW 11 19 999.1 - - - - - - - - -
02/11:00pm 5.5 W 10 17 1000.1 - - - - - - - - -
02/10:30pm 6.1 WNW 11 20 999.5 - - - - - - - - -
02/10:00pm 5.9 W 9 14 999.6 - - - - - - - - -
02/09:30pm 6.0 WNW 7 12 1000.2 - - - - - - - - -
02/09:00pm 5.7 W 9 17 1000.5 - - - - - - - - -
02/08:30pm 5.8 W 6 13 1001.3 - - - - - - - - -
02/08:00pm 6.0 WNW 3 5 1000.7 - - - - - - - - -
02/07:30pm 6.0 W 7 12 1001.0 - - - - - - - - -
02/07:00pm 6.4 W 11 17 1001.3 - - - - - - - - -
02/06:30pm 6.5 WNW 9 17 1001.2 - - - - - - - - -
02/06:00pm 5.9 W 7 11 1001.2 - - - - - - - - -
02/05:30pm 6.0 W 8 15 1000.8 - - - - - - - - -
02/05:00pm 5.6 W 9 15 1001.2 - - - - - - - - -
02/04:41pm 6.0 WSW 15 25 1001.6 - - - - - - - - -
02/04:30pm 7.1 W 10 17 1000.8 - - - - - - - - -
02/04:00pm 6.9 W 10 18 1000.6 - - - - - - - - -
02/03:30pm 6.6 W 15 26 1000.8 - - - - - - - - -
02/03:00pm 7.6 W 11 20 1000.1 - - - - - - - - -
02/02:30pm 7.5 W 13 24 999.6 - - - - - - - - -
02/02:17pm 7.6 W 15 25 999.7 - - - - - - - - -
02/02:00pm 7.8 WSW 13 23 999.5 - - - - - - - - -
02/01:30pm 7.9 WSW 15 26 999.4 - - - - - - - - -
02/01:13pm 8.1 W 15 26 999.2 - - - - - - - - -
02/01:00pm 8.5 WNW 18 27 999.1 - - - - - - - - -
02/12:44pm 9.9 NW 17 28 998.1 - - - - - - - - -
02/12:30pm 10.4 WNW 17 26 998.3 - - - - - - - - -
02/12:25pm 10.0 WNW 19 27 998.6 - - - - - - - - -
02/12:00pm 10.3 NW 22 27 999.6 - - - - - - - - -
02/11:30am 9.0 NW 16 27 1000.9 - - - - - - - - -
02/11:00am 10.5 NW 22 27 1001.6 - - - - - - - - -
02/10:30am 10.4 NW 19 27 1002.2 - - - - - - - - -
02/10:22am 10.5 WNW 15 27 1002.4 - - - - - - - - -
02/10:00am 10.0 WNW 15 25 1002.9 - - - - - - - - -
02/09:30am 9.5 WNW 11 19 1003.8 - - - - - - - - -
02/09:00am 9.0 WNW 9 14 1004.1 - - - - - - - - -
02/08:30am 8.8 WNW 11 18 1004.8 - - - - - - - - -
02/08:00am 8.1 W 7 13 1005.0 - - - - - - - - -

Other Formats:

Comma delimited format used in spreadsheet applications
http://www.bom.gov.au/fwo/IDT60701/IDT60701.95963.axf

JavaScript Object Notation format (JSON) in row-major order
http://www.bom.gov.au/fwo/IDT60701/IDT60701.95963.json